Pagrindinis puslapis
METAR-TAF:

METAR-TAF

Oro uostai :

Rerusas, Norvegija

platuma: 62-35N, ilguma: 011-21E, Aukštis: 626 m

Dabartinis oras

Ataskaita buvo paskelbta 27 minutes, ne 06:50 UTC
Vėjas 2 kt iš Vakarų/Šiaurės Vakarų
Temperatūra -25°C
Drėgmė 76%
Slėgis 994 hPa
Matomumas 10 km arba daugiau
nėra debesų žemiau 1500 m ir nėra kamuolinių lietaus debesų

METAR: ENRO 280650Z 30002KT CAVOK M25/M28 Q0994

Laikas: 08:17 (07:17 UTC)

Prognozė

Ataskaita buvo paskelbta 2 valandos ir 17 minutes, ne 05:00 UTC
Prognozė galioja nuo 28 metu 06 UTC su 28 metu 15 UTC
Vėjas 3 kt nuo kintamojo kryptimis
Matomumas 10 km arba daugiau
nėra debesų žemiau 1500 m ir nėra kamuolinių lietaus debesų
Tapsmas
nuo 28 metu 11 UTC su 28 metu 13 UTC
Vėjas 10 kt iš Pietvakarių

TAF: ENRO 280500Z 2806/2815 VRB03KT CAVOK BECMG 2811/2813 23010KT

Orai ataskaitas ir orų prognozės (METAR, TAF).

turimą stotys yra geltonos ir raudonos taškus žemėlapyje.

Perkelti pele per norėdami pamatyti stoties vardą.

Tada spustelėkite, norėdami matyti oro stebėjimo ir prognozės.

Norėdami pakeisti žemėlapį: spustelėkite ant žalios mygtukų su juodo kryžiaus žemyn,; žalią mygtuką su brūkšneliu, jei norite nutolinti; arba žalių rodyklių gretimoms žemėlapius.


METAR-TAF: